Time;durP1;ratioP1;P1;durP2;ratioP2;P2;SDS_P1;SDS_P2;PMS_P1;PMS_P2;Temp;Humidity;BMP_temperature;BMP_pressure;BME280_temperature;BME280_humidity;BME280_pressure;Samples;Min_cycle;Max_cycle;Signal;HPM_P1;HPM_P2
2024/02/15 00:00:17;;;;;;;;;;;;;;;;;;5025618;28;20011;-84
2024/02/15 00:02:44;;;;;;;;;;;;;;;;;;5025530;28;19918;-84
2024/02/15 00:05:10;;;;;;;;;;;;;;;;;;5021348;28;19913;-84
2024/02/15 00:07:36;;;;;;;;;;;;;;;;;;5022910;28;20649;-84
2024/02/15 00:10:03;;;;;;;;;;;;;;;;;;5016588;28;19931;-83
2024/02/15 00:12:29;;;;;;;;;;;;;;;;;;5021917;28;19921;-83
2024/02/15 00:14:58;;;;;;;;;;;;;;;;;;5020425;28;19921;-84
2024/02/15 00:17:24;;;;;;;;;;;;;;;;;;5020780;28;20364;-83
2024/02/15 00:19:49;;;;;;;;;;;;;;;;;;5026039;28;19917;-83
2024/02/15 00:22:15;;;;;;;;;;;;;;;;;;5018588;28;19913;-83
2024/02/15 00:24:42;;;;;;;;;;;;;;;;;;5020401;28;19913;-84
2024/02/15 00:27:08;;;;;;;;;;;;;;;;;;5020578;28;19913;-84
2024/02/15 00:29:34;;;;;;;;;;;;;;;;;;5022343;28;19987;-84
2024/02/15 00:32:01;;;;;;;;;;;;;;;;;;5022130;28;20375;-84
2024/02/15 00:34:26;;;;;;;;;;;;;;;;;;5021189;28;19917;-85
2024/02/15 00:36:52;;;;;;;;;;;;;;;;;;5024889;28;19937;-84
2024/02/15 00:39:19;;;;;;;;;;;;;;;;;;5024492;28;19928;-83
2024/02/15 00:41:45;;;;;;;;;;;;;;;;;;5021008;28;20280;-84
2024/02/15 00:44:11;;;;;;;;;;;;;;;;;;5026745;28;19935;-84
2024/02/15 00:46:37;;;;;;;;;;;;;;;;;;5020050;28;20012;-84
2024/02/15 00:49:05;;;;;;;;;;;;;;;;;;5019738;28;19921;-84
2024/02/15 00:51:31;;;;;;;;;;;;;;;;;;5020126;28;20364;-84
2024/02/15 00:53:57;;;;;;;;;;;;;;;;;;5021714;28;19928;-84
2024/02/15 00:56:24;;;;;;;;;;;;;;;;;;5020471;28;20360;-84
2024/02/15 00:58:50;;;;;;;;;;;;;;;;;;5021150;28;19944;-85
2024/02/15 01:01:15;;;;;;;;;;;;;;;;;;5019792;28;20360;-84
2024/02/15 01:03:41;;;;;;;;;;;;;;;;;;5026125;28;20004;-84
2024/02/15 01:06:07;;;;;;;;;;;;;;;;;;5026788;28;20011;-85
2024/02/15 01:08:33;;;;;;;;;;;;;;;;;;5026242;28;19913;-85
2024/02/15 01:10:59;;;;;;;;;;;;;;;;;;5023981;28;19940;-84
2024/02/15 01:13:26;;;;;;;;;;;;;;;;;;5023034;28;19940;-84
2024/02/15 01:15:51;;;;;;;;;;;;;;;;;;5024403;28;21148;-85
2024/02/15 01:18:17;;;;;;;;;;;;;;;;;;5015006;28;20359;-84
2024/02/15 01:20:44;;;;;;;;;;;;;;;;;;5025390;28;19971;-84
2024/02/15 01:23:10;;;;;;;;;;;;;;;;;;5020638;28;19925;-85
2024/02/15 01:25:37;;;;;;;;;;;;;;;;;;5022875;28;19951;-85
2024/02/15 01:28:03;;;;;;;;;;;;;;;;;;5025313;28;20593;-85
2024/02/15 01:30:30;;;;;;;;;;;;;;;;;;5021288;28;19963;-85
2024/02/15 01:32:56;;;;;;;;;;;;;;;;;;5025070;28;20039;-86
2024/02/15 01:35:21;;;;;;;;;;;;;;;;;;5030199;28;19979;-86
2024/02/15 01:37:47;;;;;;;;;;;;;;;;;;5022425;28;20429;-86
2024/02/15 01:40:13;;;;;;;;;;;;;;;;;;5032642;28;20781;-85
2024/02/15 01:42:49;;;;;;;;;;;;;;;;;;5025239;28;19936;-85
2024/02/15 01:45:15;;;;;;;;;;;;;;;;;;5036765;28;20653;-85
2024/02/15 01:47:42;;;;;;;;;;;;;;;;;;5028937;28;19917;-86
2024/02/15 01:50:08;;;;;;;;;;;;;;;;;;5030567;28;19942;-85
2024/02/15 01:52:34;;;;;;;;;;;;;;;;;;5029354;28;20264;-85
2024/02/15 01:55:00;;;;;;;;;;;;;;;;;;5030366;28;20287;-86
2024/02/15 01:57:26;;;;;;;;;;;;;;;;;;5029627;28;19920;-86
2024/02/15 01:59:52;;;;;;;;;;;;;;;;;;5029578;28;20430;-85
2024/02/15 02:02:17;;;;;;;;;;;;;;;;;;5030214;28;20478;-86
2024/02/15 02:04:43;;;;;;;;;;;;;;;;;;5035571;28;19921;-85
2024/02/15 02:07:09;;;;;;;;;;;;;;;;;;5026989;28;20368;-86
2024/02/15 02:09:35;;;;;;;;;;;;;;;;;;5023346;28;19913;-85
2024/02/15 02:12:01;;;;;;;;;;;;;;;;;;5033938;28;19913;-85
2024/02/15 02:14:27;;;;;;;;;;;;;;;;;;5027714;28;19967;-86
2024/02/15 02:16:55;;;;;;;;;;;;;;;;;;5023012;28;19913;-85
2024/02/15 02:19:20;;;;;;;;;;;;;;;;;;5020570;28;19990;-85
2024/02/15 02:21:50;;;;;;;;;;;;;;;;;;5024177;28;20044;-85
2024/02/15 02:24:16;;;;;;;;;;;;;;;;;;5027045;28;19913;-85
2024/02/15 02:26:43;;;;;;;;;;;;;;;;;;5024397;28;20073;-84
2024/02/15 02:29:09;;;;;;;;;;;;;;;;;;5025343;28;19919;-85
2024/02/15 02:31:35;;;;;;;;;;;;;;;;;;5029415;28;19924;-85
2024/02/15 02:34:06;;;;;;;;;;;;;;;;;;5028960;28;20555;-85
2024/02/15 02:36:32;;;;;;;;;;;;;;;;;;5024236;28;20438;-85
2024/02/15 02:39:01;;;;;;;;;;;;;;;;;;5026737;28;19972;-86
2024/02/15 02:41:28;;;;;;;;;;;;;;;;;;5017842;28;19940;-85
2024/02/15 02:43:53;;;;;;;;;;;;;;;;;;5016343;28;19909;-86
2024/02/15 02:46:19;;;;;;;;;;;;;;;;;;5021463;28;19913;-85
2024/02/15 02:48:45;;;;;;;;;;;;;;;;;;5023866;28;19920;-85
2024/02/15 02:51:12;;;;;;;;;;;;;;;;;;5025632;28;20327;-86
2024/02/15 02:53:38;;;;;;;;;;;;;;;;;;5027388;28;19909;-85
2024/02/15 02:56:03;;;;;;;;;;;;;;;;;;5025077;28;19921;-86
2024/02/15 02:58:29;;;;;;;;;;;;;;;;;;5029667;28;19917;-85
2024/02/15 03:00:55;;;;;;;;;;;;;;;;;;5027503;28;19913;-86
2024/02/15 03:03:24;;;;;;;;;;;;;;;;;;5018704;28;19975;-85
2024/02/15 03:05:50;;;;;;;;;;;;;;;;;;5020227;28;19913;-86
2024/02/15 03:08:17;;;;;;;;;;;;;;;;;;5022875;28;19921;-86
2024/02/15 03:10:43;;;;;;;;;;;;;;;;;;5020752;28;19929;-85
2024/02/15 03:13:09;;;;;;;;;;;;;;;;;;5021291;28;19913;-85
2024/02/15 03:15:35;;;;;;;;;;;;;;;;;;5017212;28;19913;-85
2024/02/15 03:18:06;;;;;;;;;;;;;;;;;;5026631;28;20168;-86
2024/02/15 03:20:33;;;;;;;;;;;;;;;;;;5024389;28;20324;-85
2024/02/15 03:22:59;;;;;;;;;;;;;;;;;;5018705;28;20132;-85
2024/02/15 03:25:25;;;;;;;;;;;;;;;;;;5020109;28;19917;-85
2024/02/15 03:27:53;;;;;;;;;;;;;;;;;;5028540;28;20619;-86
2024/02/15 03:30:19;;;;;;;;;;;;;;;;;;5029281;28;20403;-86
2024/02/15 03:32:46;;;;;;;;;;;;;;;;;;5021315;28;19917;-85
2024/02/15 03:35:14;;;;;;;;;;;;;;;;;;5012636;28;19941;-86
2024/02/15 03:37:39;;;;;;;;;;;;;;;;;;5020531;28;20465;-85
2024/02/15 03:40:05;;;;;;;;;;;;;;;;;;5016825;28;20012;-85
2024/02/15 03:42:31;;;;;;;;;;;;;;;;;;5029597;28;19929;-84
2024/02/15 03:44:57;;;;;;;;;;;;;;;;;;5026254;28;19917;-85
2024/02/15 03:47:23;;;;;;;;;;;;;;;;;;5021508;28;20348;-85
2024/02/15 03:49:49;;;;;;;;;;;;;;;;;;5024898;28;21490;-85
2024/02/15 03:52:15;;;;;;;;;;;;;;;;;;5024129;28;19940;-85
2024/02/15 03:54:43;;;;;;;;;;;;;;;;;;5022151;28;20213;-85
2024/02/15 03:57:11;;;;;;;;;;;;;;;;;;5017142;28;19919;-85
2024/02/15 03:59:37;;;;;;;;;;;;;;;;;;5026581;28;19961;-84
2024/02/15 04:02:05;;;;;;;;;;;;;;;;;;5024824;28;19947;-84
2024/02/15 04:04:31;;;;;;;;;;;;;;;;;;5013730;28;19917;-84
2024/02/15 04:06:58;;;;;;;;;;;;;;;;;;5028723;28;20028;-84
2024/02/15 04:09:23;;;;;;;;;;;;;;;;;;5030067;28;19971;-85
2024/02/15 04:11:52;;;;;;;;;;;;;;;;;;5026290;28;20368;-85
2024/02/15 04:14:18;;;;;;;;;;;;;;;;;;5029567;28;20349;-85
2024/02/15 04:16:44;;;;;;;;;;;;;;;;;;5031137;28;19959;-84
2024/02/15 04:19:10;;;;;;;;;;;;;;;;;;5028755;28;20269;-85
2024/02/15 04:21:36;;;;;;;;;;;;;;;;;;5025836;28;19944;-84
2024/02/15 04:24:01;;;;;;;;;;;;;;;;;;5029668;28;20124;-85
2024/02/15 04:26:29;;;;;;;;;;;;;;;;;;5028996;28;19921;-86
2024/02/15 04:28:55;;;;;;;;;;;;;;;;;;5020092;28;20027;-85
2024/02/15 04:31:26;;;;;;;;;;;;;;;;;;5027086;28;19948;-85
2024/02/15 04:33:52;;;;;;;;;;;;;;;;;;5021165;28;20006;-85
2024/02/15 04:36:23;;;;;;;;;;;;;;;;;;5029553;28;19949;-84
2024/02/15 04:38:50;;;;;;;;;;;;;;;;;;5023640;28;19923;-84
2024/02/15 04:41:19;;;;;;;;;;;;;;;;;;5029124;28;20000;-89
2024/02/15 04:43:46;;;;;;;;;;;;;;;;;;5029066;28;19917;-83
2024/02/15 04:46:14;;;;;;;;;;;;;;;;;;5031574;28;20375;-86
2024/02/15 04:48:41;;;;;;;;;;;;;;;;;;5027162;28;19945;-85
2024/02/15 04:51:07;;;;;;;;;;;;;;;;;;5031040;28;19947;-84
2024/02/15 04:53:33;;;;;;;;;;;;;;;;;;5031712;28;19909;-84
2024/02/15 04:56:01;;;;;;;;;;;;;;;;;;5024597;28;19960;-83
2024/02/15 04:58:28;;;;;;;;;;;;;;;;;;5023854;28;19959;-84
2024/02/15 05:00:59;;;;;;;;;;;;;;;;;;5030507;28;19913;-84
2024/02/15 05:03:25;;;;;;;;;;;;;;;;;;5030991;28;19925;-84
2024/02/15 05:05:51;;;;;;;;;;;;;;;;;;5026059;28;19924;-84
2024/02/15 05:08:16;;;;;;;;;;;;;;;;;;5028917;28;19921;-84
2024/02/15 05:10:42;;;;;;;;;;;;;;;;;;5031375;28;19925;-83
2024/02/15 05:13:08;;;;;;;;;;;;;;;;;;5030921;28;19913;-84
2024/02/15 05:15:34;;;;;;;;;;;;;;;;;;5026470;28;20375;-84
2024/02/15 05:18:01;;;;;;;;;;;;;;;;;;5030981;28;20394;-84
2024/02/15 05:20:27;;;;;;;;;;;;;;;;;;5020542;28;19937;-84
2024/02/15 05:22:53;;;;;;;;;;;;;;;;;;5028750;28;19921;-84
2024/02/15 05:25:26;;;;;;;;;;;;;;;;;;5023403;28;19917;-83
2024/02/15 05:27:53;;;;;;;;;;;;;;;;;;5019756;28;19924;-83
2024/02/15 05:30:19;;;;;;;;;;;;;;;;;;5024475;28;20423;-84
2024/02/15 05:32:45;;;;;;;;;;;;;;;;;;5032081;28;19917;-83
2024/02/15 05:35:11;;;;;;;;;;;;;;;;;;5023738;28;20372;-83
2024/02/15 05:37:37;;;;;;;;;;;;;;;;;;5026398;28;19924;-86
2024/02/15 05:40:03;;;;;;;;;;;;;;;;;;5031425;28;19996;-83
2024/02/15 05:42:29;;;;;;;;;;;;;;;;;;5020686;28;19921;-82
2024/02/15 05:44:55;;;;;;;;;;;;;;;;;;5022333;28;19920;-84
2024/02/15 05:47:21;;;;;;;;;;;;;;;;;;5024466;28;19976;-83
2024/02/15 05:49:47;;;;;;;;;;;;;;;;;;5024667;28;19945;-84
2024/02/15 05:52:13;;;;;;;;;;;;;;;;;;5026597;28;20374;-84
2024/02/15 05:54:41;;;;;;;;;;;;;;;;;;5026593;28;19913;-84
2024/02/15 05:57:07;;;;;;;;;;;;;;;;;;5027224;28;20299;-84
2024/02/15 05:59:33;;;;;;;;;;;;;;;;;;5024097;28;19974;-83
2024/02/15 06:01:59;;;;;;;;;;;;;;;;;;5024540;28;20375;-83
2024/02/15 06:04:26;;;;;;;;;;;;;;;;;;5026415;28;19950;-84
2024/02/15 06:06:53;;;;;;;;;;;;;;;;;;5024841;28;19917;-83
2024/02/15 06:09:21;;;;;;;;;;;;;;;;;;5023213;28;20047;-84
2024/02/15 06:11:47;;;;;;;;;;;;;;;;;;5029375;28;19924;-83
2024/02/15 06:14:13;;;;;;;;;;;;;;;;;;5023023;28;20590;-85
2024/02/15 06:16:39;;;;;;;;;;;;;;;;;;5021445;28;19921;-83
2024/02/15 06:19:05;;;;;;;;;;;;;;;;;;5021641;28;20319;-83
2024/02/15 06:21:31;;;;;;;;;;;;;;;;;;5024455;28;19920;-82
2024/02/15 06:23:57;;;;;;;;;;;;;;;;;;5032425;28;19916;-84
2024/02/15 06:26:23;;;;;;;;;;;;;;;;;;5029561;28;19913;-87
2024/02/15 06:39:49;;;;;;;;;;;;;;;;;;5028264;28;20284;-83
2024/02/15 06:42:16;;;;;;;;;;;;;;;;;;5030330;28;19920;-83
2024/02/15 06:44:42;;;;;;;;;;;;;;;;;;5034633;28;20379;-81
2024/02/15 06:47:12;;;;;;;;;;;;;;;;;;5037136;28;19909;-82
2024/02/15 06:49:41;;;;;;;;;;;;;;;;;;5025146;28;19917;-82
2024/02/15 06:52:07;;;;;;;;;;;;;;;;;;5027042;28;19920;-83
2024/02/15 06:54:33;;;;;;;;;;;;;;;;;;5027666;28;20008;-83
2024/02/15 06:56:59;;;;;;;;;;;;;;;;;;5025462;28;20031;-84
2024/02/15 06:59:25;;;;;;;;;;;;;;;;;;5024653;28;20317;-82
2024/02/15 07:01:52;;;;;;;;;;;;;;;;;;5012527;28;19925;-84
2024/02/15 07:04:18;;;;;;;;;;;;;;;;;;5021056;28;20382;-81
2024/02/15 07:06:47;;;;;;;;;;;;;;;;;;5029616;28;19913;-81
2024/02/15 07:09:15;;;;;;;;;;;;;;;;;;5030497;28;19921;-81
2024/02/15 07:11:40;;;;;;;;;;;;;;;;;;5021411;28;19917;-81
2024/02/15 07:14:07;;;;;;;;;;;;;;;;;;5030602;28;19916;-81
2024/02/15 07:16:33;;;;;;;;;;;;;;;;;;5033562;28;19932;-81
2024/02/15 07:18:59;;;;;;;;;;;;;;;;;;5029891;28;20360;-81
2024/02/15 07:21:29;;;;;;;;;;;;;;;;;;5028625;28;19917;-82
2024/02/15 07:23:54;;;;;;;;;;;;;;;;;;5029602;28;19909;-83
2024/02/15 07:26:24;;;;;;;;;;;;;;;;;;5028536;28;19920;-81
2024/02/15 07:28:50;;;;;;;;;;;;;;;;;;5027231;28;19917;-82
2024/02/15 07:31:16;;;;;;;;;;;;;;;;;;5025808;28;20473;-81
2024/02/15 07:33:45;;;;;;;;;;;;;;;;;;5020782;28;20000;-81
2024/02/15 07:36:11;;;;;;;;;;;;;;;;;;5021096;28;19914;-82
2024/02/15 07:38:37;;;;;;;;;;;;;;;;;;5022344;28;20536;-81
2024/02/15 07:41:03;;;;;;;;;;;;;;;;;;5026733;28;19920;-82
2024/02/15 07:43:29;;;;;;;;;;;;;;;;;;5019807;28;20383;-82
2024/02/15 07:45:55;;;;;;;;;;;;;;;;;;5026876;28;20383;-82
2024/02/15 07:48:20;;;;;;;;;;;;;;;;;;5024693;28;20277;-82
2024/02/15 07:50:46;;;;;;;;;;;;;;;;;;5022295;28;20034;-81
2024/02/15 07:53:13;;;;;;;;;;;;;;;;;;5022188;28;19920;-82
2024/02/15 07:55:39;;;;;;;;;;;;;;;;;;5021084;28;19956;-82
2024/02/15 07:58:05;;;;;;;;;;;;;;;;;;5025462;28;19917;-82
2024/02/15 08:00:30;;;;;;;;;;;;;;;;;;5022486;28;20295;-81
2024/02/15 08:03:00;;;;;;;;;;;;;;;;;;5007913;28;20456;-80
2024/02/15 08:05:26;;;;;;;;;;;;;;;;;;5025263;28;19914;-82
2024/02/15 08:07:57;;;;;;;;;;;;;;;;;;5027948;28;19919;-81
2024/02/15 08:10:23;;;;;;;;;;;;;;;;;;5027365;28;20011;-81
2024/02/15 08:12:52;;;;;;;;;;;;;;;;;;5015941;28;20433;-81
2024/02/15 08:15:18;;;;;;;;;;;;;;;;;;5022293;28;19913;-81
2024/02/15 08:17:46;;;;;;;;;;;;;;;;;;5015632;28;19913;-82
2024/02/15 08:20:12;;;;;;;;;;;;;;;;;;5018327;28;19913;-86
2024/02/15 08:22:40;;;;;;;;;;;;;;;;;;5024158;28;19936;-84
2024/02/15 08:25:06;;;;;;;;;;;;;;;;;;5017415;28;19967;-84
2024/02/15 08:27:33;;;;;;;;;;;;;;;;;;5025583;28;19952;-83
2024/02/15 08:29:59;;;;;;;;;;;;;;;;;;5028184;28;19996;-84
2024/02/15 08:32:25;;;;;;;;;;;;;;;;;;5028752;28;20328;-84
2024/02/15 08:34:51;;;;;;;;;;;;;;;;;;5027575;28;19979;-85
2024/02/15 08:37:18;;;;;;;;;;;;;;;;;;5015610;28;19921;-85
2024/02/15 08:39:44;;;;;;;;;;;;;;;;;;5018341;28;19932;-87
2024/02/15 08:42:11;;;;;;;;;;;;;;;;;;5022382;28;19921;-83
2024/02/15 08:44:37;;;;;;;;;;;;;;;;;;5030639;28;21601;-85
2024/02/15 08:47:04;;;;;;;;;;;;;;;;;;5030264;28;20446;-85
2024/02/15 08:49:31;;;;;;;;;;;;;;;;;;5033547;28;19921;-85
2024/02/15 08:51:58;;;;;;;;;;;;;;;;;;5026506;28;19921;-86
2024/02/15 08:54:26;;;;;;;;;;;;;;;;;;5025832;28;19924;-86
2024/02/15 08:56:52;;;;;;;;;;;;;;;;;;5033440;28;19913;-85
2024/02/15 08:59:18;;;;;;;;;;;;;;;;;;5022281;28;19920;-87
2024/02/15 09:01:46;;;;;;;;;;;;;;;;;;5022357;28;19917;-86
2024/02/15 09:04:12;;;;;;;;;;;;;;;;;;5023283;28;19956;-86
2024/02/15 09:06:38;;;;;;;;;;;;;;;;;;5022953;28;19921;-86
2024/02/15 09:09:04;;;;;;;;;;;;;;;;;;5020624;28;20384;-85
2024/02/15 09:11:30;;;;;;;;;;;;;;;;;;5022493;28;19999;-87
2024/02/15 09:13:56;;;;;;;;;;;;;;;;;;5019643;28;20125;-87
2024/02/15 09:16:22;;;;;;;;;;;;;;;;;;5032524;28;19913;-86
2024/02/15 09:18:47;;;;;;;;;;;;;;;;;;5036940;28;19913;-87
2024/02/15 09:21:14;;;;;;;;;;;;;;;;;;5031276;28;20394;-87
2024/02/15 09:23:40;;;;;;;;;;;;;;;;;;5032447;28;20137;-86
2024/02/15 09:26:05;;;;;;;;;;;;;;;;;;5031438;28;19917;-87
2024/02/15 09:28:32;;;;;;;;;;;;;;;;;;5030609;28;20016;-86
2024/02/15 09:30:59;;;;;;;;;;;;;;;;;;5029605;28;19921;-86
2024/02/15 09:33:26;;;;;;;;;;;;;;;;;;5032383;28;19921;-87
2024/02/15 09:35:52;;;;;;;;;;;;;;;;;;5026448;28;20367;-87
2024/02/15 09:38:19;;;;;;;;;;;;;;;;;;5030087;28;19921;-87
2024/02/15 09:40:45;;;;;;;;;;;;;;;;;;5033240;28;19931;-86
2024/02/15 09:43:13;;;;;;;;;;;;;;;;;;5035293;28;19909;-86
2024/02/15 09:45:39;;;;;;;;;;;;;;;;;;5038185;28;19913;-86
2024/02/15 09:48:04;;;;;;;;;;;;;;;;;;5036255;28;19940;-87
2024/02/15 09:50:30;;;;;;;;;;;;;;;;;;5031827;28;19918;-87
2024/02/15 09:52:56;;;;;;;;;;;;;;;;;;5029449;28;19963;-86
2024/02/15 09:55:22;;;;;;;;;;;;;;;;;;5035616;28;19913;-86
2024/02/15 09:57:48;;;;;;;;;;;;;;;;;;5031059;28;20001;-86
2024/02/15 10:00:15;;;;;;;;;;;;;;;;;;5030653;28;20441;-87
2024/02/15 10:02:41;;;;;;;;;;;;;;;;;;5034677;28;19909;-86
2024/02/15 10:05:11;;;;;;;;;;;;;;;;;;5026757;28;19917;-86
2024/02/15 10:07:37;;;;;;;;;;;;;;;;;;5033411;28;19920;-87
2024/02/15 10:10:05;;;;;;;;;;;;;;;;;;5023149;28;19921;-87
2024/02/15 10:12:30;;;;;;;;;;;;;;;;;;5025817;28;19939;-87
2024/02/15 10:14:56;;;;;;;;;;;;;;;;;;5039971;28;20013;-87
2024/02/15 10:17:22;;;;;;;;;;;;;;;;;;5013523;28;19922;-85
2024/02/15 10:19:49;;;;;;;;;;;;;;;;;;5022311;28;19917;-85
2024/02/15 10:22:15;;;;;;;;;;;;;;;;;;5019532;28;19939;-84
2024/02/15 10:24:41;;;;;;;;;;;;;;;;;;5024222;28;20456;-85
2024/02/15 10:27:07;;;;;;;;;;;;;;;;;;5027732;28;19913;-85
2024/02/15 10:29:36;;;;;;;;;;;;;;;;;;5025789;28;19920;-85
2024/02/15 10:32:02;;;;;;;;;;;;;;;;;;5023939;28;19948;-85
2024/02/15 10:34:28;;;;;;;;;;;;;;;;;;5019867;28;20000;-85
2024/02/15 10:36:56;;;;;;;;;;;;;;;;;;5024558;28;19960;-86
2024/02/15 10:39:23;;;;;;;;;;;;;;;;;;5029982;28;20367;-86
2024/02/15 10:41:49;;;;;;;;;;;;;;;;;;5026042;28;19913;-85
2024/02/15 10:44:15;;;;;;;;;;;;;;;;;;5022933;28;19947;-85
2024/02/15 10:46:41;;;;;;;;;;;;;;;;;;5022318;28;20388;-85
2024/02/15 10:49:07;;;;;;;;;;;;;;;;;;5017539;28;19916;-85
2024/02/15 10:51:33;;;;;;;;;;;;;;;;;;5013306;28;19922;-85
2024/02/15 10:53:59;;;;;;;;;;;;;;;;;;5019463;28;20267;-85
2024/02/15 10:56:25;;;;;;;;;;;;;;;;;;5024144;28;19923;-86
2024/02/15 10:58:50;;;;;;;;;;;;;;;;;;5024997;28;20295;-82
2024/02/15 11:01:17;;;;;;;;;;;;;;;;;;5029178;28;19931;-82
2024/02/15 11:03:43;;;;;;;;;;;;;;;;;;5021084;28;19940;-81
2024/02/15 11:06:10;;;;;;;;;;;;;;;;;;5020173;28;20368;-82
2024/02/15 11:08:36;;;;;;;;;;;;;;;;;;5026542;28;19909;-81
2024/02/15 11:11:04;;;;;;;;;;;;;;;;;;5026685;28;20376;-82
2024/02/15 11:13:30;;;;;;;;;;;;;;;;;;5026456;28;19995;-81
2024/02/15 11:15:58;;;;;;;;;;;;;;;;;;5022333;28;19996;-81
2024/02/15 11:18:24;;;;;;;;;;;;;;;;;;5020800;28;19975;-82
2024/02/15 11:20:50;;;;;;;;;;;;;;;;;;5008891;28;19913;-81
2024/02/15 11:23:16;;;;;;;;;;;;;;;;;;5017203;28;19920;-81
2024/02/15 11:25:42;;;;;;;;;;;;;;;;;;5018648;28;19914;-82
2024/02/15 11:28:08;;;;;;;;;;;;;;;;;;5015059;28;19914;-81
2024/02/15 11:30:34;;;;;;;;;;;;;;;;;;5023139;28;19990;-84
2024/02/15 11:33:02;;;;;;;;;;;;;;;;;;5011255;28;21246;-84
2024/02/15 11:35:29;;;;;;;;;;;;;;;;;;5026201;28;19909;-84
2024/02/15 11:37:57;;;;;;;;;;;;;;;;;;5027968;28;19921;-83
2024/02/15 11:40:23;;;;;;;;;;;;;;;;;;5028406;28;19932;-83
2024/02/15 11:42:49;;;;;;;;;;;;;;;;;;5023105;28;20376;-83
2024/02/15 11:45:18;;;;;;;;;;;;;;;;;;5028181;28;20368;-83
2024/02/15 11:47:48;;;;;;;;;;;;;;;;;;5027858;28;19913;-84
2024/02/15 11:50:17;;;;;;;;;;;;;;;;;;5026017;28;20028;-84
2024/02/15 11:52:43;;;;;;;;;;;;;;;;;;5028026;28;19909;-83
2024/02/15 11:55:13;;;;;;;;;;;;;;;;;;5027429;28;20008;-83
2024/02/15 11:57:47;;;;;;;;;;;;;;;;;;5017794;28;19913;-83
2024/02/15 12:19:34;;;;;;;;;;;;;;;;;;5025372;28;19923;-83
2024/02/15 12:22:00;;;;;;;;;;;;;;;;;;5027149;28;19913;-84
2024/02/15 12:24:28;;;;;;;;;;;;;;;;;;5030048;28;19917;-83
2024/02/15 12:26:54;;;;;;;;;;;;;;;;;;5031319;28;19913;-83
2024/02/15 12:29:20;;;;;;;;;;;;;;;;;;5029226;28;19925;-83
2024/02/15 12:31:46;;;;;;;;;;;;;;;;;;5031441;28;19924;-83
2024/02/15 12:34:13;;;;;;;;;;;;;;;;;;5029655;28;20036;-83
2024/02/15 12:36:39;;;;;;;;;;;;;;;;;;5030917;28;20633;-83
2024/02/15 12:39:10;;;;;;;;;;;;;;;;;;5030277;28;19928;-83
2024/02/15 12:41:36;;;;;;;;;;;;;;;;;;5022075;28;20149;-83
2024/02/15 12:44:03;;;;;;;;;;;;;;;;;;5030750;28;19942;-84
2024/02/15 12:46:29;;;;;;;;;;;;;;;;;;5031172;28;19948;-83
2024/02/15 12:48:55;;;;;;;;;;;;;;;;;;5027794;28;19949;-83
2024/02/15 12:51:21;;;;;;;;;;;;;;;;;;5021772;28;19921;-83
2024/02/15 12:53:47;;;;;;;;;;;;;;;;;;5012200;28;19909;-83
2024/02/15 12:56:14;;;;;;;;;;;;;;;;;;5022264;28;20570;-83
2024/02/15 12:58:40;;;;;;;;;;;;;;;;;;5033401;28;20292;-83
2024/02/15 13:01:06;;;;;;;;;;;;;;;;;;5028906;28;19913;-83
2024/02/15 13:03:32;;;;;;;;;;;;;;;;;;5030851;28;19971;-86
2024/02/15 13:05:58;;;;;;;;;;;;;;;;;;5028281;28;19913;-81
2024/02/15 13:08:23;;;;;;;;;;;;;;;;;;5030860;28;20706;-81
2024/02/15 13:10:51;;;;;;;;;;;;;;;;;;5025265;28;19925;-81
2024/02/15 13:13:17;;;;;;;;;;;;;;;;;;5028504;28;19917;-82
2024/02/15 13:15:43;;;;;;;;;;;;;;;;;;5030710;28;19916;-81
2024/02/15 13:18:13;;;;;;;;;;;;;;;;;;5030135;28;19944;-81
2024/02/15 13:20:39;;;;;;;;;;;;;;;;;;5029226;28;19962;-81
2024/02/15 13:23:08;;;;;;;;;;;;;;;;;;5030137;28;19921;-81
2024/02/15 13:25:34;;;;;;;;;;;;;;;;;;5030651;28;20524;-81
2024/02/15 13:28:00;;;;;;;;;;;;;;;;;;5030099;28;19916;-81
2024/02/15 13:30:29;;;;;;;;;;;;;;;;;;5021351;28;20372;-81
2024/02/15 13:32:54;;;;;;;;;;;;;;;;;;5028665;28;20449;-81
2024/02/15 13:35:23;;;;;;;;;;;;;;;;;;5027677;28;19913;-82
2024/02/15 13:37:49;;;;;;;;;;;;;;;;;;5029885;28;19921;-83
2024/02/15 13:40:15;;;;;;;;;;;;;;;;;;5017789;28;20467;-81
2024/02/15 13:42:42;;;;;;;;;;;;;;;;;;5029920;28;20040;-81
2024/02/15 13:45:09;;;;;;;;;;;;;;;;;;5029756;28;19909;-82
2024/02/15 13:47:35;;;;;;;;;;;;;;;;;;5030113;28;19916;-82
2024/02/15 13:50:02;;;;;;;;;;;;;;;;;;5025601;28;20391;-82
2024/02/15 13:52:28;;;;;;;;;;;;;;;;;;5029189;28;20360;-81
2024/02/15 13:54:54;;;;;;;;;;;;;;;;;;5029826;28;19972;-81
2024/02/15 13:57:20;;;;;;;;;;;;;;;;;;5019136;28;19913;-81
2024/02/15 13:59:46;;;;;;;;;;;;;;;;;;5029891;28;19916;-81
2024/02/15 14:02:12;;;;;;;;;;;;;;;;;;5029839;28;19944;-83
2024/02/15 14:04:38;;;;;;;;;;;;;;;;;;5033632;28;19916;-80
2024/02/15 14:07:04;;;;;;;;;;;;;;;;;;5028611;28;19917;-81
2024/02/15 14:09:30;;;;;;;;;;;;;;;;;;5029520;28;19932;-81
2024/02/15 14:11:57;;;;;;;;;;;;;;;;;;5029154;28;19928;-81
2024/02/15 14:14:23;;;;;;;;;;;;;;;;;;5029853;28;19909;-81
2024/02/15 14:16:49;;;;;;;;;;;;;;;;;;5027145;28;20357;-81
2024/02/15 14:19:15;;;;;;;;;;;;;;;;;;5028545;28;19963;-81
2024/02/15 14:21:42;;;;;;;;;;;;;;;;;;5029629;28;19909;-82
2024/02/15 14:24:08;;;;;;;;;;;;;;;;;;5024747;28;19940;-81
2024/02/15 14:26:34;;;;;;;;;;;;;;;;;;5029287;28;20363;-81
2024/02/15 14:29:03;;;;;;;;;;;;;;;;;;5028923;28;20326;-81
2024/02/15 14:34:25;;;;;;;;;;;;;;;;;;4990368;28;19914;-82
2024/02/15 14:36:51;;;;;;;;;;;;;;;;;;5018588;28;19917;-81
2024/02/15 14:39:17;;;;;;;;;;;;;;;;;;5028570;28;20295;-81
2024/02/15 14:41:42;;;;;;;;;;;;;;;;;;5028937;28;19956;-81
2024/02/15 14:44:08;;;;;;;;;;;;;;;;;;5028417;28;19913;-81
2024/02/15 14:46:35;;;;;;;;;;;;;;;;;;5025932;28;19917;-81
2024/02/15 14:49:02;;;;;;;;;;;;;;;;;;5025760;28;19913;-80
2024/02/15 14:51:28;;;;;;;;;;;;;;;;;;5028186;28;19928;-86
2024/02/15 14:53:53;;;;;;;;;;;;;;;;;;5028356;28;19917;-83
2024/02/15 14:56:19;;;;;;;;;;;;;;;;;;5023218;28;19920;-82
2024/02/15 14:58:46;;;;;;;;;;;;;;;;;;5027459;28;19924;-81
2024/02/15 15:01:13;;;;;;;;;;;;;;;;;;5028338;28;19916;-82
2024/02/15 15:03:39;;;;;;;;;;;;;;;;;;5023177;28;19963;-82
2024/02/15 15:14:19;;;;;;;;;;;;;;;;;;5026251;28;20675;-81
2024/02/15 15:16:45;;;;;;;;;;;;;;;;;;5027031;28;20362;-80
2024/02/15 15:19:10;;;;;;;;;;;;;;;;;;5027970;28;19917;-84
2024/02/15 15:21:36;;;;;;;;;;;;;;;;;;5028630;28;20477;-79
2024/02/15 15:24:02;;;;;;;;;;;;;;;;;;5028127;28;20307;-82
2024/02/15 15:26:31;;;;;;;;;;;;;;;;;;5025387;28;19935;-85
2024/02/15 15:28:57;;;;;;;;;;;;;;;;;;5028370;28;19983;-81
2024/02/15 15:31:23;;;;;;;;;;;;;;;;;;5028241;28;19948;-83
2024/02/15 15:33:49;;;;;;;;;;;;;;;;;;5026422;28;20304;-86
2024/02/15 15:36:17;;;;;;;;;;;;;;;;;;5028465;28;19910;-88
2024/02/15 15:38:43;;;;;;;;;;;;;;;;;;5016282;28;20296;-84
2024/02/15 15:41:09;;;;;;;;;;;;;;;;;;5028875;28;19921;-89
2024/02/15 15:43:35;;;;;;;;;;;;;;;;;;5027357;28;19949;-84
2024/02/15 15:46:01;;;;;;;;;;;;;;;;;;5021782;28;19952;-89
2024/02/15 15:48:27;;;;;;;;;;;;;;;;;;5032240;28;20391;-85
2024/02/15 15:50:53;;;;;;;;;;;;;;;;;;5030068;28;19921;-85
2024/02/15 15:53:19;;;;;;;;;;;;;;;;;;5028211;28;20390;-84
2024/02/15 15:55:46;;;;;;;;;;;;;;;;;;5028985;28;20005;-84
2024/02/15 15:58:12;;;;;;;;;;;;;;;;;;5031760;28;19924;-84
2024/02/15 16:00:38;;;;;;;;;;;;;;;;;;5028062;28;19917;-83
2024/02/15 16:03:04;;;;;;;;;;;;;;;;;;5032845;28;19920;-82
2024/02/15 16:05:30;;;;;;;;;;;;;;;;;;5030705;28;20360;-87
2024/02/15 16:07:56;;;;;;;;;;;;;;;;;;5032619;28;19920;-85
2024/02/15 16:10:24;;;;;;;;;;;;;;;;;;5032200;28;20015;-83
2024/02/15 16:12:52;;;;;;;;;;;;;;;;;;5033967;28;19920;-83
2024/02/15 16:15:18;;;;;;;;;;;;;;;;;;5022454;28;19973;-81
2024/02/15 16:17:45;;;;;;;;;;;;;;;;;;5035190;28;19935;-82
2024/02/15 16:20:13;;;;;;;;;;;;;;;;;;5030304;28;19913;-82
2024/02/15 16:22:39;;;;;;;;;;;;;;;;;;5035692;28;19999;-83
2024/02/15 16:25:11;;;;;;;;;;;;;;;;;;5031849;28;20367;-84
2024/02/15 16:27:37;;;;;;;;;;;;;;;;;;5031846;28;19952;-80
2024/02/15 16:30:03;;;;;;;;;;;;;;;;;;5026807;28;19972;-83
2024/02/15 16:32:31;;;;;;;;;;;;;;;;;;5030572;28;20078;-85
2024/02/15 16:34:57;;;;;;;;;;;;;;;;;;5027734;28;19924;-84
2024/02/15 16:37:24;;;;;;;;;;;;;;;;;;5024368;28;19921;-86
2024/02/15 16:39:50;;;;;;;;;;;;;;;;;;5023039;28;20311;-85
2024/02/15 16:42:16;;;;;;;;;;;;;;;;;;5022465;28;19921;-86
2024/02/15 16:44:46;;;;;;;;;;;;;;;;;;5019273;28;19920;-86
2024/02/15 16:47:12;;;;;;;;;;;;;;;;;;5022438;28;19917;-86
2024/02/15 16:49:38;;;;;;;;;;;;;;;;;;5022972;28;20307;-86
2024/02/15 16:52:05;;;;;;;;;;;;;;;;;;5020702;28;19929;-85
2024/02/15 16:54:30;;;;;;;;;;;;;;;;;;5027584;28;19935;-84
2024/02/15 16:56:58;;;;;;;;;;;;;;;;;;5023063;28;19921;-85
2024/02/15 16:59:24;;;;;;;;;;;;;;;;;;5024068;28;19924;-85
2024/02/15 17:01:51;;;;;;;;;;;;;;;;;;5022007;28;19913;-84
2024/02/15 17:04:17;;;;;;;;;;;;;;;;;;5022950;28;20536;-84
2024/02/15 17:06:43;;;;;;;;;;;;;;;;;;5025973;28;19920;-84
2024/02/15 17:09:08;;;;;;;;;;;;;;;;;;5030829;28;19917;-84
2024/02/15 17:11:35;;;;;;;;;;;;;;;;;;5028883;28;20032;-84
2024/02/15 17:14:02;;;;;;;;;;;;;;;;;;5024967;28;20040;-83
2024/02/15 17:16:28;;;;;;;;;;;;;;;;;;5025367;28;19924;-83
2024/02/15 17:18:54;;;;;;;;;;;;;;;;;;5028663;28;19921;-84
2024/02/15 17:21:19;;;;;;;;;;;;;;;;;;5030140;28;19947;-84